Steinach, Austria
Current Conditions -  °F | °C
As of 8:20 AM on Thursday 29 Jan 2015 (Local Time) from LOWI Reporting Station
Light Snow Light Snow  
Wind Chill: 23°   Ceiling: 2000
Heat Index: 30°   Visibility: 2.5mi
Dew Point: 30°   Wind: 7mph
Humidity: 100%   Direction: 270°W
Pressure: 29.56"   Gusts: NA
Location:  47.08°N, 11.47°E
Report Text: LOWI 290620Z 27006KT 4000 -SN SCT005 SCT008 OVC020 M01/M01 Q1001 R08/1///95 TEMPO 2000 SN VV010
Loading
Personal Weather Stations






























Interactive Weather Map New forecast layout! Learn more

10-Day Weather Forecast

Advertisements
Track Severe Weather on mobile